sensor_id;sensor_type;location;lat;lon;timestamp;temperature;humidity
21393;DHT22;10857;52.228;21.026;2023-07-31T00:00:16;20.50;59.40
21393;DHT22;10857;52.228;21.026;2023-07-31T00:02:43;20.50;59.40
21393;DHT22;10857;52.228;21.026;2023-07-31T00:05:10;20.50;59.40
21393;DHT22;10857;52.228;21.026;2023-07-31T00:07:37;20.40;59.40
21393;DHT22;10857;52.228;21.026;2023-07-31T00:10:04;20.40;59.40
21393;DHT22;10857;52.228;21.026;2023-07-31T00:12:31;20.40;59.40
21393;DHT22;10857;52.228;21.026;2023-07-31T00:14:59;20.40;59.50
21393;DHT22;10857;52.228;21.026;2023-07-31T00:17:26;20.20;59.50
21393;DHT22;10857;52.228;21.026;2023-07-31T00:19:53;20.10;59.50
21393;DHT22;10857;52.228;21.026;2023-07-31T00:22:20;20.20;59.60
21393;DHT22;10857;52.228;21.026;2023-07-31T00:24:47;20.20;59.50
21393;DHT22;10857;52.228;21.026;2023-07-31T00:27:14;20.30;59.50
21393;DHT22;10857;52.228;21.026;2023-07-31T00:29:43;20.10;59.50
21393;DHT22;10857;52.228;21.026;2023-07-31T00:32:10;20.20;59.60
21393;DHT22;10857;52.228;21.026;2023-07-31T00:34:37;20.10;59.60
21393;DHT22;10857;52.228;21.026;2023-07-31T00:37:04;20.20;59.60
21393;DHT22;10857;52.228;21.026;2023-07-31T00:39:33;20.00;59.60
21393;DHT22;10857;52.228;21.026;2023-07-31T00:42:00;20.10;59.60
21393;DHT22;10857;52.228;21.026;2023-07-31T00:44:27;20.00;59.70
21393;DHT22;10857;52.228;21.026;2023-07-31T00:46:54;20.00;59.70
21393;DHT22;10857;52.228;21.026;2023-07-31T00:49:23;19.80;59.70
21393;DHT22;10857;52.228;21.026;2023-07-31T00:51:50;19.70;59.90
21393;DHT22;10857;52.228;21.026;2023-07-31T00:54:17;19.70;60.80
21393;DHT22;10857;52.228;21.026;2023-07-31T00:56:47;19.70;60.70
21393;DHT22;10857;52.228;21.026;2023-07-31T00:59:15;19.60;59.90
21393;DHT22;10857;52.228;21.026;2023-07-31T01:01:42;19.60;59.90
21393;DHT22;10857;52.228;21.026;2023-07-31T01:04:09;19.60;61.60
21393;DHT22;10857;52.228;21.026;2023-07-31T01:07:06;19.50;64.20
21393;DHT22;10857;52.228;21.026;2023-07-31T01:12:19;19.70;61.10
21393;DHT22;10857;52.228;21.026;2023-07-31T01:15:06;19.80;59.90
21393;DHT22;10857;52.228;21.026;2023-07-31T01:17:33;19.70;59.90
21393;DHT22;10857;52.228;21.026;2023-07-31T01:20:03;19.60;63.40
21393;DHT22;10857;52.228;21.026;2023-07-31T01:27:35;19.50;74.70
21393;DHT22;10857;52.228;21.026;2023-07-31T01:30:16;19.60;68.90
21393;DHT22;10857;52.228;21.026;2023-07-31T01:32:47;19.40;78.80
21393;DHT22;10857;52.228;21.026;2023-07-31T01:35:15;19.50;75.30
21393;DHT22;10857;52.228;21.026;2023-07-31T01:37:43;19.60;69.40
21393;DHT22;10857;52.228;21.026;2023-07-31T01:40:10;19.40;75.20
21393;DHT22;10857;52.228;21.026;2023-07-31T01:42:37;19.40;77.50
21393;DHT22;10857;52.228;21.026;2023-07-31T01:45:04;19.40;80.00
21393;DHT22;10857;52.228;21.026;2023-07-31T01:47:32;19.50;83.00
21393;DHT22;10857;52.228;21.026;2023-07-31T01:49:59;19.50;77.90
21393;DHT22;10857;52.228;21.026;2023-07-31T01:52:26;19.40;83.20
21393;DHT22;10857;52.228;21.026;2023-07-31T01:54:53;19.40;82.50
21393;DHT22;10857;52.228;21.026;2023-07-31T01:57:20;19.40;77.90
21393;DHT22;10857;52.228;21.026;2023-07-31T01:59:47;19.30;87.60
21393;DHT22;10857;52.228;21.026;2023-07-31T02:02:14;19.40;84.40
21393;DHT22;10857;52.228;21.026;2023-07-31T02:04:41;19.20;89.10
21393;DHT22;10857;52.228;21.026;2023-07-31T02:07:08;19.10;98.70
21393;DHT22;10857;52.228;21.026;2023-07-31T02:09:35;19.20;96.40
21393;DHT22;10857;52.228;21.026;2023-07-31T02:12:02;19.10;98.00
21393;DHT22;10857;52.228;21.026;2023-07-31T02:14:30;19.20;99.90
21393;DHT22;10857;52.228;21.026;2023-07-31T02:16:57;19.20;96.30
21393;DHT22;10857;52.228;21.026;2023-07-31T02:19:24;19.20;99.10
21393;DHT22;10857;52.228;21.026;2023-07-31T02:21:52;19.10;99.10
21393;DHT22;10857;52.228;21.026;2023-07-31T02:24:19;19.00;99.90
21393;DHT22;10857;52.228;21.026;2023-07-31T02:26:46;19.00;99.90
21393;DHT22;10857;52.228;21.026;2023-07-31T02:29:13;18.90;99.90
21393;DHT22;10857;52.228;21.026;2023-07-31T02:31:40;19.00;99.90
21393;DHT22;10857;52.228;21.026;2023-07-31T02:34:07;19.00;99.90
21393;DHT22;10857;52.228;21.026;2023-07-31T02:36:34;18.80;99.90
21393;DHT22;10857;52.228;21.026;2023-07-31T02:39:01;18.90;99.90
21393;DHT22;10857;52.228;21.026;2023-07-31T02:42:01;18.80;99.90
21393;DHT22;10857;52.228;21.026;2023-07-31T02:44:29;18.70;99.90
21393;DHT22;10857;52.228;21.026;2023-07-31T02:46:56;18.70;99.90
21393;DHT22;10857;52.228;21.026;2023-07-31T02:49:23;18.60;99.90
21393;DHT22;10857;52.228;21.026;2023-07-31T02:51:50;18.60;99.90
21393;DHT22;10857;52.228;21.026;2023-07-31T02:54:17;18.60;99.90
21393;DHT22;10857;52.228;21.026;2023-07-31T02:56:44;18.40;99.90
21393;DHT22;10857;52.228;21.026;2023-07-31T02:59:11;18.60;99.90
21393;DHT22;10857;52.228;21.026;2023-07-31T03:01:38;18.40;99.90
21393;DHT22;10857;52.228;21.026;2023-07-31T03:04:05;18.30;99.90
21393;DHT22;10857;52.228;21.026;2023-07-31T03:06:32;18.40;99.90
21393;DHT22;10857;52.228;21.026;2023-07-31T03:08:59;18.40;99.90
21393;DHT22;10857;52.228;21.026;2023-07-31T03:11:27;18.30;99.90
21393;DHT22;10857;52.228;21.026;2023-07-31T03:13:55;18.30;99.90
21393;DHT22;10857;52.228;21.026;2023-07-31T03:16:22;18.30;99.90
21393;DHT22;10857;52.228;21.026;2023-07-31T03:18:49;18.40;99.90
21393;DHT22;10857;52.228;21.026;2023-07-31T03:21:16;18.40;99.90
21393;DHT22;10857;52.228;21.026;2023-07-31T03:23:43;18.40;99.90
21393;DHT22;10857;52.228;21.026;2023-07-31T03:26:10;18.40;99.90
21393;DHT22;10857;52.228;21.026;2023-07-31T03:28:38;18.30;99.90
21393;DHT22;10857;52.228;21.026;2023-07-31T03:31:05;18.40;99.90
21393;DHT22;10857;52.228;21.026;2023-07-31T03:33:33;18.40;99.90
21393;DHT22;10857;52.228;21.026;2023-07-31T03:36:00;18.50;99.80
21393;DHT22;10857;52.228;21.026;2023-07-31T03:38:27;18.60;95.60
21393;DHT22;10857;52.228;21.026;2023-07-31T03:40:54;18.60;98.30
21393;DHT22;10857;52.228;21.026;2023-07-31T03:43:21;18.50;97.50
21393;DHT22;10857;52.228;21.026;2023-07-31T03:45:48;18.60;97.10
21393;DHT22;10857;52.228;21.026;2023-07-31T03:48:15;18.50;99.90
21393;DHT22;10857;52.228;21.026;2023-07-31T03:50:43;18.50;99.50
21393;DHT22;10857;52.228;21.026;2023-07-31T03:53:10;18.50;99.90
21393;DHT22;10857;52.228;21.026;2023-07-31T03:55:37;18.50;99.90
21393;DHT22;10857;52.228;21.026;2023-07-31T03:58:04;18.40;99.90
21393;DHT22;10857;52.228;21.026;2023-07-31T04:00:31;18.40;99.90
21393;DHT22;10857;52.228;21.026;2023-07-31T04:02:58;18.40;99.90
21393;DHT22;10857;52.228;21.026;2023-07-31T04:05:26;18.50;99.90
21393;DHT22;10857;52.228;21.026;2023-07-31T04:07:53;18.50;99.90
21393;DHT22;10857;52.228;21.026;2023-07-31T04:10:20;18.40;99.90
21393;DHT22;10857;52.228;21.026;2023-07-31T04:12:47;18.20;99.90
21393;DHT22;10857;52.228;21.026;2023-07-31T04:15:14;18.20;99.90
21393;DHT22;10857;52.228;21.026;2023-07-31T04:17:42;18.20;99.90
21393;DHT22;10857;52.228;21.026;2023-07-31T04:20:10;18.20;99.90
21393;DHT22;10857;52.228;21.026;2023-07-31T04:22:36;18.20;99.90
21393;DHT22;10857;52.228;21.026;2023-07-31T04:25:04;18.20;99.90
21393;DHT22;10857;52.228;21.026;2023-07-31T04:27:31;18.10;99.90
21393;DHT22;10857;52.228;21.026;2023-07-31T04:29:58;18.10;99.90
21393;DHT22;10857;52.228;21.026;2023-07-31T04:32:25;18.00;99.90
21393;DHT22;10857;52.228;21.026;2023-07-31T04:34:52;18.10;99.90
21393;DHT22;10857;52.228;21.026;2023-07-31T04:37:19;18.10;99.90
21393;DHT22;10857;52.228;21.026;2023-07-31T04:39:46;18.10;99.90
21393;DHT22;10857;52.228;21.026;2023-07-31T04:42:14;18.20;99.90
21393;DHT22;10857;52.228;21.026;2023-07-31T04:44:41;18.10;99.90
21393;DHT22;10857;52.228;21.026;2023-07-31T04:47:08;18.10;99.90
21393;DHT22;10857;52.228;21.026;2023-07-31T04:49:35;18.10;99.90
21393;DHT22;10857;52.228;21.026;2023-07-31T04:52:02;18.10;99.90
21393;DHT22;10857;52.228;21.026;2023-07-31T04:54:29;18.10;99.90
21393;DHT22;10857;52.228;21.026;2023-07-31T04:56:56;18.10;99.90
21393;DHT22;10857;52.228;21.026;2023-07-31T04:59:23;18.10;99.90
21393;DHT22;10857;52.228;21.026;2023-07-31T05:01:50;18.10;99.90
21393;DHT22;10857;52.228;21.026;2023-07-31T05:04:17;18.10;99.90
21393;DHT22;10857;52.228;21.026;2023-07-31T05:06:44;18.10;99.90
21393;DHT22;10857;52.228;21.026;2023-07-31T05:09:11;18.10;99.90
21393;DHT22;10857;52.228;21.026;2023-07-31T05:11:39;18.10;99.90
21393;DHT22;10857;52.228;21.026;2023-07-31T05:14:07;18.20;99.90
21393;DHT22;10857;52.228;21.026;2023-07-31T05:16:34;18.20;99.90
21393;DHT22;10857;52.228;21.026;2023-07-31T05:19:01;18.20;99.90
21393;DHT22;10857;52.228;21.026;2023-07-31T05:21:28;18.20;99.90
21393;DHT22;10857;52.228;21.026;2023-07-31T05:23:55;18.20;99.90
21393;DHT22;10857;52.228;21.026;2023-07-31T05:26:22;18.30;99.90
21393;DHT22;10857;52.228;21.026;2023-07-31T05:28:49;18.30;99.90
21393;DHT22;10857;52.228;21.026;2023-07-31T05:31:16;18.30;99.90
21393;DHT22;10857;52.228;21.026;2023-07-31T05:33:43;18.30;99.90
21393;DHT22;10857;52.228;21.026;2023-07-31T05:36:10;18.30;99.90
21393;DHT22;10857;52.228;21.026;2023-07-31T05:38:37;18.40;99.90
21393;DHT22;10857;52.228;21.026;2023-07-31T05:41:08;18.40;99.90
21393;DHT22;10857;52.228;21.026;2023-07-31T05:43:35;18.20;99.90
21393;DHT22;10857;52.228;21.026;2023-07-31T05:46:02;18.30;99.90
21393;DHT22;10857;52.228;21.026;2023-07-31T05:48:32;18.30;99.90
21393;DHT22;10857;52.228;21.026;2023-07-31T05:51:01;18.30;99.90
21393;DHT22;10857;52.228;21.026;2023-07-31T05:53:29;18.30;99.90
21393;DHT22;10857;52.228;21.026;2023-07-31T05:55:56;18.40;99.90
21393;DHT22;10857;52.228;21.026;2023-07-31T05:58:23;18.30;99.90
21393;DHT22;10857;52.228;21.026;2023-07-31T06:00:50;18.30;99.90
21393;DHT22;10857;52.228;21.026;2023-07-31T06:03:17;18.30;99.90
21393;DHT22;10857;52.228;21.026;2023-07-31T06:05:44;18.20;99.90
21393;DHT22;10857;52.228;21.026;2023-07-31T06:08:11;18.30;99.90
21393;DHT22;10857;52.228;21.026;2023-07-31T06:10:39;18.30;99.90
21393;DHT22;10857;52.228;21.026;2023-07-31T06:13:06;18.10;99.90
21393;DHT22;10857;52.228;21.026;2023-07-31T06:15:35;18.20;99.90
21393;DHT22;10857;52.228;21.026;2023-07-31T06:18:03;18.10;99.90
21393;DHT22;10857;52.228;21.026;2023-07-31T06:20:34;18.10;99.90
21393;DHT22;10857;52.228;21.026;2023-07-31T06:23:02;18.30;99.90
21393;DHT22;10857;52.228;21.026;2023-07-31T06:25:30;18.10;99.90
21393;DHT22;10857;52.228;21.026;2023-07-31T06:27:57;18.10;99.90
21393;DHT22;10857;52.228;21.026;2023-07-31T06:30:25;18.20;99.90
21393;DHT22;10857;52.228;21.026;2023-07-31T06:32:52;18.10;99.90
21393;DHT22;10857;52.228;21.026;2023-07-31T06:35:19;18.10;99.90
21393;DHT22;10857;52.228;21.026;2023-07-31T06:37:46;18.30;99.90
21393;DHT22;10857;52.228;21.026;2023-07-31T06:40:13;18.20;99.90
21393;DHT22;10857;52.228;21.026;2023-07-31T06:42:40;18.30;99.90
21393;DHT22;10857;52.228;21.026;2023-07-31T06:45:07;18.30;99.90
21393;DHT22;10857;52.228;21.026;2023-07-31T06:47:35;18.20;99.90
21393;DHT22;10857;52.228;21.026;2023-07-31T06:50:02;18.20;99.90
21393;DHT22;10857;52.228;21.026;2023-07-31T06:52:29;18.20;99.90
21393;DHT22;10857;52.228;21.026;2023-07-31T06:55:18;18.30;99.90
21393;DHT22;10857;52.228;21.026;2023-07-31T06:57:55;18.30;99.90
21393;DHT22;10857;52.228;21.026;2023-07-31T07:00:23;18.50;99.90
21393;DHT22;10857;52.228;21.026;2023-07-31T07:02:51;18.40;99.90
21393;DHT22;10857;52.228;21.026;2023-07-31T07:05:18;18.30;99.90
21393;DHT22;10857;52.228;21.026;2023-07-31T07:07:45;18.40;99.90
21393;DHT22;10857;52.228;21.026;2023-07-31T07:10:12;18.60;99.90
21393;DHT22;10857;52.228;21.026;2023-07-31T07:12:39;18.60;99.90
21393;DHT22;10857;52.228;21.026;2023-07-31T07:15:07;18.50;99.90
21393;DHT22;10857;52.228;21.026;2023-07-31T07:17:34;18.40;99.90
21393;DHT22;10857;52.228;21.026;2023-07-31T07:20:01;18.40;99.90
21393;DHT22;10857;52.228;21.026;2023-07-31T07:22:30;18.30;99.90
21393;DHT22;10857;52.228;21.026;2023-07-31T07:24:57;18.50;99.90
21393;DHT22;10857;52.228;21.026;2023-07-31T07:27:24;18.70;99.90
21393;DHT22;10857;52.228;21.026;2023-07-31T07:29:51;18.60;99.90
21393;DHT22;10857;52.228;21.026;2023-07-31T07:32:21;18.60;99.90
21393;DHT22;10857;52.228;21.026;2023-07-31T07:34:48;18.60;99.90
21393;DHT22;10857;52.228;21.026;2023-07-31T07:37:16;18.60;99.90
21393;DHT22;10857;52.228;21.026;2023-07-31T07:39:43;18.70;99.90
21393;DHT22;10857;52.228;21.026;2023-07-31T07:42:10;18.90;95.20
21393;DHT22;10857;52.228;21.026;2023-07-31T07:44:39;19.00;90.70
21393;DHT22;10857;52.228;21.026;2023-07-31T07:47:06;19.20;86.70
21393;DHT22;10857;52.228;21.026;2023-07-31T07:49:34;19.30;69.60
21393;DHT22;10857;52.228;21.026;2023-07-31T07:52:02;19.60;65.80
21393;DHT22;10857;52.228;21.026;2023-07-31T07:54:31;19.90;59.70
21393;DHT22;10857;52.228;21.026;2023-07-31T07:56:58;20.00;59.50
21393;DHT22;10857;52.228;21.026;2023-07-31T07:59:26;20.00;59.40
21393;DHT22;10857;52.228;21.026;2023-07-31T08:01:53;20.20;59.40
21393;DHT22;10857;52.228;21.026;2023-07-31T08:04:20;20.10;59.40
21393;DHT22;10857;52.228;21.026;2023-07-31T08:06:47;20.10;59.40
21393;DHT22;10857;52.228;21.026;2023-07-31T08:09:14;20.10;59.40
21393;DHT22;10857;52.228;21.026;2023-07-31T08:11:42;20.10;59.40
21393;DHT22;10857;52.228;21.026;2023-07-31T08:14:09;20.30;59.30
21393;DHT22;10857;52.228;21.026;2023-07-31T08:16:36;20.40;59.30
21393;DHT22;10857;52.228;21.026;2023-07-31T08:19:03;20.50;59.20
21393;DHT22;10857;52.228;21.026;2023-07-31T08:21:31;20.70;59.10
21393;DHT22;10857;52.228;21.026;2023-07-31T08:23:58;20.70;59.10
21393;DHT22;10857;52.228;21.026;2023-07-31T08:26:25;20.50;59.10
21393;DHT22;10857;52.228;21.026;2023-07-31T08:28:52;20.50;59.10
21393;DHT22;10857;52.228;21.026;2023-07-31T08:31:19;20.60;59.10
21393;DHT22;10857;52.228;21.026;2023-07-31T08:33:47;20.80;59.00
21393;DHT22;10857;52.228;21.026;2023-07-31T08:36:14;21.00;59.00
21393;DHT22;10857;52.228;21.026;2023-07-31T08:38:41;21.20;58.80
21393;DHT22;10857;52.228;21.026;2023-07-31T08:41:08;21.00;58.80
21393;DHT22;10857;52.228;21.026;2023-07-31T08:43:36;21.10;58.80
21393;DHT22;10857;52.228;21.026;2023-07-31T08:46:05;21.20;58.80
21393;DHT22;10857;52.228;21.026;2023-07-31T08:48:32;21.40;58.70
21393;DHT22;10857;52.228;21.026;2023-07-31T08:51:00;21.30;58.70
21393;DHT22;10857;52.228;21.026;2023-07-31T08:53:27;21.30;58.70
21393;DHT22;10857;52.228;21.026;2023-07-31T08:55:54;21.50;58.60
21393;DHT22;10857;52.228;21.026;2023-07-31T08:58:23;21.70;58.60
21393;DHT22;10857;52.228;21.026;2023-07-31T09:00:51;21.60;58.50
21393;DHT22;10857;52.228;21.026;2023-07-31T09:03:22;21.50;58.60
21393;DHT22;10857;52.228;21.026;2023-07-31T09:05:50;21.70;58.50
21393;DHT22;10857;52.228;21.026;2023-07-31T09:08:19;21.60;58.50
21393;DHT22;10857;52.228;21.026;2023-07-31T09:10:47;21.70;58.50
21393;DHT22;10857;52.228;21.026;2023-07-31T09:13:14;21.60;58.50
21393;DHT22;10857;52.228;21.026;2023-07-31T09:15:43;21.60;58.50
21393;DHT22;10857;52.228;21.026;2023-07-31T09:18:11;21.90;58.40
21393;DHT22;10857;52.228;21.026;2023-07-31T09:20:38;22.10;58.40
21393;DHT22;10857;52.228;21.026;2023-07-31T09:23:08;22.20;58.30
21393;DHT22;10857;52.228;21.026;2023-07-31T09:25:36;21.50;58.50
21393;DHT22;10857;52.228;21.026;2023-07-31T09:28:08;22.00;58.40
21393;DHT22;10857;52.228;21.026;2023-07-31T09:30:46;21.80;58.40
21393;DHT22;10857;52.228;21.026;2023-07-31T09:33:15;22.10;58.30
21393;DHT22;10857;52.228;21.026;2023-07-31T09:35:42;22.10;58.30
21393;DHT22;10857;52.228;21.026;2023-07-31T09:38:13;22.20;58.30
21393;DHT22;10857;52.228;21.026;2023-07-31T09:40:47;22.00;58.30
21393;DHT22;10857;52.228;21.026;2023-07-31T09:43:19;21.90;58.40
21393;DHT22;10857;52.228;21.026;2023-07-31T09:45:47;21.80;58.40
21393;DHT22;10857;52.228;21.026;2023-07-31T09:48:16;21.70;58.40
21393;DHT22;10857;52.228;21.026;2023-07-31T09:50:48;21.70;58.40
21393;DHT22;10857;52.228;21.026;2023-07-31T09:53:16;21.80;58.40
21393;DHT22;10857;52.228;21.026;2023-07-31T09:55:43;22.20;58.30
21393;DHT22;10857;52.228;21.026;2023-07-31T09:58:12;22.20;58.20
21393;DHT22;10857;52.228;21.026;2023-07-31T10:00:39;22.60;58.10
21393;DHT22;10857;52.228;21.026;2023-07-31T10:03:10;22.80;58.10
21393;DHT22;10857;52.228;21.026;2023-07-31T10:05:40;23.00;58.00
21393;DHT22;10857;52.228;21.026;2023-07-31T10:08:09;23.20;57.90
21393;DHT22;10857;52.228;21.026;2023-07-31T10:10:42;23.10;57.80
21393;DHT22;10857;52.228;21.026;2023-07-31T10:13:12;23.10;57.80
21393;DHT22;10857;52.228;21.026;2023-07-31T10:15:40;23.10;57.80
21393;DHT22;10857;52.228;21.026;2023-07-31T10:18:11;23.20;57.80
21393;DHT22;10857;52.228;21.026;2023-07-31T10:20:40;23.00;57.80
21393;DHT22;10857;52.228;21.026;2023-07-31T10:23:08;22.80;57.90
21393;DHT22;10857;52.228;21.026;2023-07-31T10:25:35;22.90;57.90
21393;DHT22;10857;52.228;21.026;2023-07-31T10:28:03;22.90;57.80
21393;DHT22;10857;52.228;21.026;2023-07-31T10:30:32;23.00;57.70
21393;DHT22;10857;52.228;21.026;2023-07-31T10:33:05;23.20;57.60
21393;DHT22;10857;52.228;21.026;2023-07-31T10:35:32;23.40;57.50
21393;DHT22;10857;52.228;21.026;2023-07-31T10:38:11;23.10;57.60
21393;DHT22;10857;52.228;21.026;2023-07-31T10:40:39;23.20;57.50
21393;DHT22;10857;52.228;21.026;2023-07-31T10:43:06;23.30;57.50
21393;DHT22;10857;52.228;21.026;2023-07-31T10:45:37;23.40;57.50
21393;DHT22;10857;52.228;21.026;2023-07-31T10:48:16;23.60;57.40
21393;DHT22;10857;52.228;21.026;2023-07-31T10:53:28;23.70;57.30
21393;DHT22;10857;52.228;21.026;2023-07-31T10:56:00;23.50;57.40
21393;DHT22;10857;52.228;21.026;2023-07-31T10:58:27;23.20;57.50
21393;DHT22;10857;52.228;21.026;2023-07-31T11:00:59;23.00;57.50
21393;DHT22;10857;52.228;21.026;2023-07-31T11:03:41;23.20;57.50
21393;DHT22;10857;52.228;21.026;2023-07-31T11:06:09;23.10;57.50
21393;DHT22;10857;52.228;21.026;2023-07-31T11:08:46;22.80;57.50
21393;DHT22;10857;52.228;21.026;2023-07-31T11:11:15;22.90;57.50
21393;DHT22;10857;52.228;21.026;2023-07-31T11:13:52;23.00;57.40
21393;DHT22;10857;52.228;21.026;2023-07-31T11:16:24;23.10;57.40
21393;DHT22;10857;52.228;21.026;2023-07-31T11:18:53;23.20;57.20
21393;DHT22;10857;52.228;21.026;2023-07-31T11:21:24;23.30;57.20
21393;DHT22;10857;52.228;21.026;2023-07-31T11:23:53;23.20;57.30
21393;DHT22;10857;52.228;21.026;2023-07-31T11:26:20;23.50;57.10
21393;DHT22;10857;52.228;21.026;2023-07-31T11:28:48;23.40;57.10
21393;DHT22;10857;52.228;21.026;2023-07-31T11:31:16;23.40;57.10
21393;DHT22;10857;52.228;21.026;2023-07-31T11:33:44;23.40;57.10
21393;DHT22;10857;52.228;21.026;2023-07-31T11:36:15;23.20;57.00
21393;DHT22;10857;52.228;21.026;2023-07-31T11:38:43;23.20;57.10
21393;DHT22;10857;52.228;21.026;2023-07-31T11:41:10;23.30;57.10
21393;DHT22;10857;52.228;21.026;2023-07-31T11:43:40;23.50;57.10
21393;DHT22;10857;52.228;21.026;2023-07-31T11:46:07;23.80;57.10
21393;DHT22;10857;52.228;21.026;2023-07-31T11:48:36;23.80;57.00
21393;DHT22;10857;52.228;21.026;2023-07-31T11:51:05;23.60;57.00
21393;DHT22;10857;52.228;21.026;2023-07-31T11:53:51;23.50;57.00
21393;DHT22;10857;52.228;21.026;2023-07-31T11:56:19;23.40;57.10
21393;DHT22;10857;52.228;21.026;2023-07-31T11:58:49;23.10;57.10
21393;DHT22;10857;52.228;21.026;2023-07-31T12:01:19;23.10;57.20
21393;DHT22;10857;52.228;21.026;2023-07-31T12:03:48;23.10;57.20
21393;DHT22;10857;52.228;21.026;2023-07-31T12:06:17;23.30;57.20
21393;DHT22;10857;52.228;21.026;2023-07-31T12:08:44;23.20;57.20
21393;DHT22;10857;52.228;21.026;2023-07-31T12:11:11;22.90;57.30
21393;DHT22;10857;52.228;21.026;2023-07-31T12:13:40;23.00;57.20
21393;DHT22;10857;52.228;21.026;2023-07-31T12:16:07;23.00;57.30
21393;DHT22;10857;52.228;21.026;2023-07-31T12:18:36;23.30;57.30
21393;DHT22;10857;52.228;21.026;2023-07-31T12:21:08;23.40;57.20
21393;DHT22;10857;52.228;21.026;2023-07-31T12:23:38;23.40;57.20
21393;DHT22;10857;52.228;21.026;2023-07-31T12:26:07;23.20;57.30
21393;DHT22;10857;52.228;21.026;2023-07-31T12:28:42;22.80;57.30
21393;DHT22;10857;52.228;21.026;2023-07-31T12:31:21;22.80;57.40
21393;DHT22;10857;52.228;21.026;2023-07-31T12:33:50;22.90;57.40
21393;DHT22;10857;52.228;21.026;2023-07-31T12:36:23;22.80;57.40
21393;DHT22;10857;52.228;21.026;2023-07-31T12:38:51;23.00;57.40
21393;DHT22;10857;52.228;21.026;2023-07-31T12:41:18;22.90;57.40
21393;DHT22;10857;52.228;21.026;2023-07-31T12:43:45;22.90;57.50
21393;DHT22;10857;52.228;21.026;2023-07-31T12:46:13;23.10;57.40
21393;DHT22;10857;52.228;21.026;2023-07-31T12:48:41;23.10;57.40
21393;DHT22;10857;52.228;21.026;2023-07-31T12:51:08;23.30;57.40
21393;DHT22;10857;52.228;21.026;2023-07-31T12:53:35;23.20;57.30
21393;DHT22;10857;52.228;21.026;2023-07-31T12:56:03;23.30;57.40
21393;DHT22;10857;52.228;21.026;2023-07-31T12:58:30;23.30;57.30
21393;DHT22;10857;52.228;21.026;2023-07-31T13:00:57;23.20;57.30
21393;DHT22;10857;52.228;21.026;2023-07-31T13:03:24;23.10;57.30
21393;DHT22;10857;52.228;21.026;2023-07-31T13:05:51;23.20;57.30
21393;DHT22;10857;52.228;21.026;2023-07-31T13:08:19;23.40;57.30
21393;DHT22;10857;52.228;21.026;2023-07-31T13:10:46;23.40;57.30
21393;DHT22;10857;52.228;21.026;2023-07-31T13:13:13;23.40;57.30
21393;DHT22;10857;52.228;21.026;2023-07-31T13:15:41;23.50;57.10
21393;DHT22;10857;52.228;21.026;2023-07-31T13:18:09;23.50;57.10
21393;DHT22;10857;52.228;21.026;2023-07-31T13:20:36;23.60;57.00
21393;DHT22;10857;52.228;21.026;2023-07-31T13:23:03;23.20;57.00
21393;DHT22;10857;52.228;21.026;2023-07-31T13:25:32;23.20;57.00
21393;DHT22;10857;52.228;21.026;2023-07-31T13:27:59;23.20;57.00
21393;DHT22;10857;52.228;21.026;2023-07-31T13:30:29;23.40;57.00
21393;DHT22;10857;52.228;21.026;2023-07-31T13:32:56;23.50;56.90
21393;DHT22;10857;52.228;21.026;2023-07-31T13:35:23;23.70;56.90
21393;DHT22;10857;52.228;21.026;2023-07-31T13:37:50;23.80;56.80
21393;DHT22;10857;52.228;21.026;2023-07-31T13:40:17;23.80;56.80
21393;DHT22;10857;52.228;21.026;2023-07-31T13:42:44;23.70;56.80
21393;DHT22;10857;52.228;21.026;2023-07-31T13:45:11;23.60;56.80
21393;DHT22;10857;52.228;21.026;2023-07-31T13:47:38;23.80;56.80
21393;DHT22;10857;52.228;21.026;2023-07-31T13:50:05;24.00;56.70
21393;DHT22;10857;52.228;21.026;2023-07-31T13:52:33;24.00;56.70
21393;DHT22;10857;52.228;21.026;2023-07-31T13:58:32;24.20;56.70
21393;DHT22;10857;52.228;21.026;2023-07-31T14:00:59;24.30;56.70
21393;DHT22;10857;52.228;21.026;2023-07-31T14:03:26;24.00;56.70
21393;DHT22;10857;52.228;21.026;2023-07-31T14:05:53;23.90;56.70
21393;DHT22;10857;52.228;21.026;2023-07-31T14:08:20;23.80;56.70
21393;DHT22;10857;52.228;21.026;2023-07-31T14:10:47;23.60;56.80
21393;DHT22;10857;52.228;21.026;2023-07-31T14:13:14;23.40;56.80
21393;DHT22;10857;52.228;21.026;2023-07-31T14:15:42;23.50;56.80
21393;DHT22;10857;52.228;21.026;2023-07-31T14:18:10;23.40;56.90
21393;DHT22;10857;52.228;21.026;2023-07-31T14:20:37;23.20;56.90
21393;DHT22;10857;52.228;21.026;2023-07-31T14:23:05;23.30;56.90
21393;DHT22;10857;52.228;21.026;2023-07-31T14:25:32;23.20;56.90
21393;DHT22;10857;52.228;21.026;2023-07-31T14:27:59;23.30;56.90
21393;DHT22;10857;52.228;21.026;2023-07-31T14:30:27;23.40;56.90
21393;DHT22;10857;52.228;21.026;2023-07-31T14:32:54;23.30;56.90
21393;DHT22;10857;52.228;21.026;2023-07-31T14:35:21;23.20;57.00
21393;DHT22;10857;52.228;21.026;2023-07-31T14:37:48;23.10;57.00
21393;DHT22;10857;52.228;21.026;2023-07-31T14:40:15;23.10;57.00
21393;DHT22;10857;52.228;21.026;2023-07-31T14:42:42;23.20;57.00
21393;DHT22;10857;52.228;21.026;2023-07-31T14:45:09;23.20;57.00
21393;DHT22;10857;52.228;21.026;2023-07-31T14:47:37;23.10;57.00
21393;DHT22;10857;52.228;21.026;2023-07-31T14:50:04;23.20;57.00
21393;DHT22;10857;52.228;21.026;2023-07-31T14:52:31;23.50;57.00
21393;DHT22;10857;52.228;21.026;2023-07-31T14:54:59;23.70;57.00
21393;DHT22;10857;52.228;21.026;2023-07-31T14:57:26;23.90;56.90
21393;DHT22;10857;52.228;21.026;2023-07-31T14:59:53;23.80;56.90
21393;DHT22;10857;52.228;21.026;2023-07-31T15:02:20;23.80;56.90
21393;DHT22;10857;52.228;21.026;2023-07-31T15:04:47;23.90;56.90
21393;DHT22;10857;52.228;21.026;2023-07-31T15:07:15;23.70;56.90
21393;DHT22;10857;52.228;21.026;2023-07-31T15:09:42;23.50;57.00
21393;DHT22;10857;52.228;21.026;2023-07-31T15:12:10;23.50;57.00
21393;DHT22;10857;52.228;21.026;2023-07-31T15:14:37;23.50;57.00
21393;DHT22;10857;52.228;21.026;2023-07-31T15:17:04;23.40;57.00
21393;DHT22;10857;52.228;21.026;2023-07-31T15:19:31;23.40;57.10
21393;DHT22;10857;52.228;21.026;2023-07-31T15:22:02;23.50;57.10
21393;DHT22;10857;52.228;21.026;2023-07-31T15:24:29;23.50;57.00
21393;DHT22;10857;52.228;21.026;2023-07-31T15:26:56;23.70;57.00
21393;DHT22;10857;52.228;21.026;2023-07-31T15:29:23;23.70;57.00
21393;DHT22;10857;52.228;21.026;2023-07-31T15:31:50;23.80;57.00
21393;DHT22;10857;52.228;21.026;2023-07-31T15:34:17;23.80;57.00